sensor_id;sensor_type;location;lat;lon;timestamp;pressure;altitude;pressure_sealevel;temperature;humidity
7966;BME280;4028;43.272;26.932;2023-01-31T00:03:44;98560.63;;;-1.14;100.00
7966;BME280;4028;43.272;26.932;2023-01-31T00:06:21;98575.47;;;-1.00;100.00
7966;BME280;4028;43.272;26.932;2023-01-31T00:08:48;98566.50;;;-0.94;100.00
7966;BME280;4028;43.272;26.932;2023-01-31T00:11:16;98567.81;;;-0.87;100.00
7966;BME280;4028;43.272;26.932;2023-01-31T00:13:42;98572.94;;;-0.86;100.00
7966;BME280;4028;43.272;26.932;2023-01-31T00:16:09;98571.19;;;-1.01;100.00
7966;BME280;4028;43.272;26.932;2023-01-31T00:18:35;98561.81;;;-1.03;100.00
7966;BME280;4028;43.272;26.932;2023-01-31T00:21:07;98562.31;;;-1.13;100.00
7966;BME280;4028;43.272;26.932;2023-01-31T00:23:33;98559.81;;;-1.14;100.00
7966;BME280;4028;43.272;26.932;2023-01-31T00:26:22;98571.84;;;-1.13;100.00
7966;BME280;4028;43.272;26.932;2023-01-31T00:28:49;98557.97;;;-1.12;100.00
7966;BME280;4028;43.272;26.932;2023-01-31T00:31:16;98556.97;;;-1.10;100.00
7966;BME280;4028;43.272;26.932;2023-01-31T00:33:44;98560.47;;;-1.11;100.00
7966;BME280;4028;43.272;26.932;2023-01-31T00:36:13;98540.53;;;-1.10;100.00
7966;BME280;4028;43.272;26.932;2023-01-31T00:38:38;98540.78;;;-0.99;100.00
7966;BME280;4028;43.272;26.932;2023-01-31T00:41:06;98550.50;;;-1.02;100.00
7966;BME280;4028;43.272;26.932;2023-01-31T00:43:32;98547.06;;;-1.03;100.00
7966;BME280;4028;43.272;26.932;2023-01-31T00:45:58;98547.72;;;-0.99;100.00
7966;BME280;4028;43.272;26.932;2023-01-31T00:48:23;98546.06;;;-1.00;100.00
7966;BME280;4028;43.272;26.932;2023-01-31T00:50:49;98540.03;;;-1.01;100.00
7966;BME280;4028;43.272;26.932;2023-01-31T00:53:15;98534.03;;;-0.87;100.00
7966;BME280;4028;43.272;26.932;2023-01-31T00:55:43;98541.34;;;-0.94;100.00
7966;BME280;4028;43.272;26.932;2023-01-31T00:58:09;98533.47;;;-0.92;100.00
7966;BME280;4028;43.272;26.932;2023-01-31T01:00:34;98532.00;;;-0.96;100.00
7966;BME280;4028;43.272;26.932;2023-01-31T01:03:00;98532.56;;;-0.91;100.00
7966;BME280;4028;43.272;26.932;2023-01-31T01:05:25;98531.38;;;-0.86;100.00
7966;BME280;4028;43.272;26.932;2023-01-31T01:07:51;98532.31;;;-0.87;100.00
7966;BME280;4028;43.272;26.932;2023-01-31T01:10:16;98536.63;;;-0.87;100.00
7966;BME280;4028;43.272;26.932;2023-01-31T01:12:42;98529.38;;;-0.96;100.00
7966;BME280;4028;43.272;26.932;2023-01-31T01:15:07;98534.50;;;-0.95;100.00
7966;BME280;4028;43.272;26.932;2023-01-31T01:17:33;98532.72;;;-0.94;100.00
7966;BME280;4028;43.272;26.932;2023-01-31T01:19:58;98530.88;;;-0.92;100.00
7966;BME280;4028;43.272;26.932;2023-01-31T01:22:30;98525.97;;;-0.97;100.00
7966;BME280;4028;43.272;26.932;2023-01-31T01:24:57;98534.66;;;-0.98;100.00
7966;BME280;4028;43.272;26.932;2023-01-31T01:27:23;98534.31;;;-0.92;100.00
7966;BME280;4028;43.272;26.932;2023-01-31T01:29:48;98541.09;;;-0.89;100.00
7966;BME280;4028;43.272;26.932;2023-01-31T01:32:14;98545.72;;;-0.94;100.00
7966;BME280;4028;43.272;26.932;2023-01-31T01:34:39;98543.13;;;-0.94;100.00
7966;BME280;4028;43.272;26.932;2023-01-31T01:37:07;98538.50;;;-0.89;100.00
7966;BME280;4028;43.272;26.932;2023-01-31T01:39:47;98532.31;;;-0.87;100.00
7966;BME280;4028;43.272;26.932;2023-01-31T01:42:15;98524.69;;;-0.90;100.00
7966;BME280;4028;43.272;26.932;2023-01-31T01:48:05;98516.22;;;-0.93;100.00
7966;BME280;4028;43.272;26.932;2023-01-31T01:52:48;98516.56;;;-0.99;100.00
7966;BME280;4028;43.272;26.932;2023-01-31T01:57:43;98511.06;;;-1.09;100.00
7966;BME280;4028;43.272;26.932;2023-01-31T02:00:20;98507.03;;;-1.15;100.00
7966;BME280;4028;43.272;26.932;2023-01-31T02:02:48;98514.47;;;-1.09;100.00
7966;BME280;4028;43.272;26.932;2023-01-31T02:05:19;98511.97;;;-1.10;100.00
7966;BME280;4028;43.272;26.932;2023-01-31T02:07:45;98507.38;;;-1.05;100.00
7966;BME280;4028;43.272;26.932;2023-01-31T02:10:13;98515.25;;;-1.07;100.00
7966;BME280;4028;43.272;26.932;2023-01-31T02:12:40;98510.91;;;-1.06;100.00
7966;BME280;4028;43.272;26.932;2023-01-31T02:15:07;98514.00;;;-1.15;100.00
7966;BME280;4028;43.272;26.932;2023-01-31T02:17:32;98515.75;;;-1.16;100.00
7966;BME280;4028;43.272;26.932;2023-01-31T02:31:49;98514.06;;;-1.01;100.00
7966;BME280;4028;43.272;26.932;2023-01-31T02:37:23;98512.31;;;-1.00;100.00
7966;BME280;4028;43.272;26.932;2023-01-31T02:42:59;98519.88;;;-1.12;100.00
7966;BME280;4028;43.272;26.932;2023-01-31T02:45:49;98513.41;;;-1.05;100.00
7966;BME280;4028;43.272;26.932;2023-01-31T02:53:36;98518.94;;;-1.11;100.00
7966;BME280;4028;43.272;26.932;2023-01-31T02:56:09;98510.97;;;-1.08;100.00
7966;BME280;4028;43.272;26.932;2023-01-31T02:58:40;98503.94;;;-1.06;100.00
7966;BME280;4028;43.272;26.932;2023-01-31T03:01:13;98518.56;;;-0.89;100.00
7966;BME280;4028;43.272;26.932;2023-01-31T03:03:40;98501.41;;;-0.77;100.00
7966;BME280;4028;43.272;26.932;2023-01-31T03:08:52;98506.13;;;-0.54;100.00
7966;BME280;4028;43.272;26.932;2023-01-31T03:11:25;98509.75;;;-0.42;100.00
7966;BME280;4028;43.272;26.932;2023-01-31T03:14:16;98510.88;;;-0.46;100.00
7966;BME280;4028;43.272;26.932;2023-01-31T03:19:48;98510.16;;;-0.34;100.00
7966;BME280;4028;43.272;26.932;2023-01-31T03:22:20;98518.78;;;-0.33;100.00
7966;BME280;4028;43.272;26.932;2023-01-31T03:24:51;98509.50;;;-0.37;100.00
7966;BME280;4028;43.272;26.932;2023-01-31T03:27:18;98522.13;;;-0.31;100.00
7966;BME280;4028;43.272;26.932;2023-01-31T03:29:46;98519.91;;;-0.23;100.00
7966;BME280;4028;43.272;26.932;2023-01-31T03:32:23;98513.31;;;-0.29;100.00
7966;BME280;4028;43.272;26.932;2023-01-31T03:34:50;98501.31;;;-0.31;100.00
7966;BME280;4028;43.272;26.932;2023-01-31T03:40:20;98505.41;;;-0.27;100.00
7966;BME280;4028;43.272;26.932;2023-01-31T03:42:58;98498.09;;;-0.35;100.00
7966;BME280;4028;43.272;26.932;2023-01-31T03:47:59;98497.81;;;-0.30;100.00
7966;BME280;4028;43.272;26.932;2023-01-31T03:50:35;98508.88;;;-0.12;100.00
7966;BME280;4028;43.272;26.932;2023-01-31T03:53:26;98510.91;;;-0.17;100.00
7966;BME280;4028;43.272;26.932;2023-01-31T03:55:56;98497.53;;;-0.25;100.00
7966;BME280;4028;43.272;26.932;2023-01-31T03:58:28;98505.53;;;-0.14;100.00
7966;BME280;4028;43.272;26.932;2023-01-31T04:00:56;98503.28;;;-0.06;100.00
7966;BME280;4028;43.272;26.932;2023-01-31T04:03:27;98500.69;;;-0.06;100.00
7966;BME280;4028;43.272;26.932;2023-01-31T04:05:55;98507.28;;;-0.15;100.00
7966;BME280;4028;43.272;26.932;2023-01-31T04:08:20;98507.66;;;-0.07;100.00
7966;BME280;4028;43.272;26.932;2023-01-31T04:10:46;98500.97;;;0.04;100.00
7966;BME280;4028;43.272;26.932;2023-01-31T04:13:12;98495.59;;;-0.08;100.00
7966;BME280;4028;43.272;26.932;2023-01-31T04:15:37;98519.28;;;0.02;100.00
7966;BME280;4028;43.272;26.932;2023-01-31T04:18:03;98515.38;;;-0.05;100.00
7966;BME280;4028;43.272;26.932;2023-01-31T04:20:28;98519.38;;;0.01;100.00
7966;BME280;4028;43.272;26.932;2023-01-31T04:22:54;98513.22;;;0.02;100.00
7966;BME280;4028;43.272;26.932;2023-01-31T04:25:19;98509.59;;;0.04;100.00
7966;BME280;4028;43.272;26.932;2023-01-31T04:27:45;98500.13;;;0.03;100.00
7966;BME280;4028;43.272;26.932;2023-01-31T04:30:11;98514.91;;;0.03;100.00
7966;BME280;4028;43.272;26.932;2023-01-31T04:32:36;98510.06;;;-0.04;100.00
7966;BME280;4028;43.272;26.932;2023-01-31T04:35:02;98515.63;;;0.05;100.00
7966;BME280;4028;43.272;26.932;2023-01-31T04:37:28;98519.63;;;0.10;100.00
7966;BME280;4028;43.272;26.932;2023-01-31T04:39:54;98527.34;;;0.12;100.00
7966;BME280;4028;43.272;26.932;2023-01-31T04:42:19;98533.50;;;0.11;100.00
7966;BME280;4028;43.272;26.932;2023-01-31T04:44:45;98525.78;;;-0.05;100.00
7966;BME280;4028;43.272;26.932;2023-01-31T04:47:10;98534.03;;;0.02;100.00
7966;BME280;4028;43.272;26.932;2023-01-31T04:49:36;98537.47;;;0.02;100.00
7966;BME280;4028;43.272;26.932;2023-01-31T04:52:01;98528.75;;;0.03;100.00
7966;BME280;4028;43.272;26.932;2023-01-31T04:54:27;98535.44;;;0.07;100.00
7966;BME280;4028;43.272;26.932;2023-01-31T04:56:52;98536.81;;;-0.02;100.00
7966;BME280;4028;43.272;26.932;2023-01-31T04:59:18;98535.16;;;-0.03;100.00
7966;BME280;4028;43.272;26.932;2023-01-31T05:01:43;98536.66;;;0.02;100.00
7966;BME280;4028;43.272;26.932;2023-01-31T05:04:09;98534.03;;;0.02;100.00
7966;BME280;4028;43.272;26.932;2023-01-31T05:06:35;98537.19;;;0.07;100.00
7966;BME280;4028;43.272;26.932;2023-01-31T05:09:00;98536.09;;;0.11;100.00
7966;BME280;4028;43.272;26.932;2023-01-31T05:11:27;98526.25;;;0.02;100.00
7966;BME280;4028;43.272;26.932;2023-01-31T05:13:53;98534.50;;;0.08;100.00
7966;BME280;4028;43.272;26.932;2023-01-31T05:16:18;98532.06;;;0.19;100.00
7966;BME280;4028;43.272;26.932;2023-01-31T05:18:44;98539.53;;;0.11;100.00
7966;BME280;4028;43.272;26.932;2023-01-31T05:21:10;98537.84;;;0.10;100.00
7966;BME280;4028;43.272;26.932;2023-01-31T05:23:35;98545.38;;;0.01;100.00
7966;BME280;4028;43.272;26.932;2023-01-31T05:26:01;98549.81;;;-0.02;100.00
7966;BME280;4028;43.272;26.932;2023-01-31T05:28:26;98549.16;;;0.09;100.00
7966;BME280;4028;43.272;26.932;2023-01-31T05:30:52;98557.06;;;0.08;100.00
7966;BME280;4028;43.272;26.932;2023-01-31T05:33:18;98559.31;;;0.14;100.00
7966;BME280;4028;43.272;26.932;2023-01-31T05:35:47;98568.72;;;0.16;100.00
7966;BME280;4028;43.272;26.932;2023-01-31T05:38:13;98574.63;;;0.18;100.00
7966;BME280;4028;43.272;26.932;2023-01-31T05:40:39;98577.34;;;0.17;100.00
7966;BME280;4028;43.272;26.932;2023-01-31T05:43:04;98578.63;;;0.24;100.00
7966;BME280;4028;43.272;26.932;2023-01-31T05:45:30;98572.03;;;0.33;100.00
7966;BME280;4028;43.272;26.932;2023-01-31T05:47:56;98574.91;;;0.28;100.00
7966;BME280;4028;43.272;26.932;2023-01-31T05:50:22;98580.50;;;0.36;100.00
7966;BME280;4028;43.272;26.932;2023-01-31T05:52:52;98586.44;;;0.38;100.00
7966;BME280;4028;43.272;26.932;2023-01-31T05:55:18;98585.88;;;0.47;100.00
7966;BME280;4028;43.272;26.932;2023-01-31T05:57:44;98583.19;;;0.49;100.00
7966;BME280;4028;43.272;26.932;2023-01-31T06:00:11;98587.00;;;0.58;100.00
7966;BME280;4028;43.272;26.932;2023-01-31T06:02:36;98589.50;;;0.59;100.00
7966;BME280;4028;43.272;26.932;2023-01-31T06:05:02;98586.81;;;0.46;100.00
7966;BME280;4028;43.272;26.932;2023-01-31T06:07:27;98590.88;;;0.50;100.00
7966;BME280;4028;43.272;26.932;2023-01-31T06:09:53;98599.63;;;0.64;100.00
7966;BME280;4028;43.272;26.932;2023-01-31T06:12:18;98606.41;;;0.66;100.00
7966;BME280;4028;43.272;26.932;2023-01-31T06:14:44;98606.78;;;0.60;100.00
7966;BME280;4028;43.272;26.932;2023-01-31T06:17:11;98603.78;;;0.66;100.00
7966;BME280;4028;43.272;26.932;2023-01-31T06:19:36;98580.56;;;0.63;100.00
7966;BME280;4028;43.272;26.932;2023-01-31T06:22:03;98604.28;;;0.73;100.00
7966;BME280;4028;43.272;26.932;2023-01-31T06:24:29;98614.41;;;0.77;100.00
7966;BME280;4028;43.272;26.932;2023-01-31T06:26:54;98606.31;;;0.82;100.00
7966;BME280;4028;43.272;26.932;2023-01-31T06:29:20;98609.19;;;0.77;100.00
7966;BME280;4028;43.272;26.932;2023-01-31T06:31:45;98622.13;;;0.79;100.00
7966;BME280;4028;43.272;26.932;2023-01-31T06:34:11;98615.41;;;0.75;100.00
7966;BME280;4028;43.272;26.932;2023-01-31T06:36:36;98615.25;;;0.78;100.00
7966;BME280;4028;43.272;26.932;2023-01-31T06:39:02;98604.28;;;0.73;100.00
7966;BME280;4028;43.272;26.932;2023-01-31T06:41:28;98618.41;;;0.83;100.00
7966;BME280;4028;43.272;26.932;2023-01-31T06:43:54;98612.69;;;0.91;100.00
7966;BME280;4028;43.272;26.932;2023-01-31T06:46:20;98614.47;;;0.90;100.00
7966;BME280;4028;43.272;26.932;2023-01-31T06:48:45;98624.63;;;0.81;100.00
7966;BME280;4028;43.272;26.932;2023-01-31T06:51:12;98629.06;;;0.93;100.00
7966;BME280;4028;43.272;26.932;2023-01-31T06:53:38;98629.81;;;0.81;100.00
7966;BME280;4028;43.272;26.932;2023-01-31T06:56:04;98623.41;;;0.86;100.00
7966;BME280;4028;43.272;26.932;2023-01-31T06:58:29;98627.03;;;0.98;100.00
7966;BME280;4028;43.272;26.932;2023-01-31T07:00:55;98637.88;;;1.04;100.00
7966;BME280;4028;43.272;26.932;2023-01-31T07:03:21;98647.31;;;0.93;100.00
7966;BME280;4028;43.272;26.932;2023-01-31T07:05:46;98652.16;;;0.85;100.00
7966;BME280;4028;43.272;26.932;2023-01-31T07:08:13;98650.53;;;0.96;100.00
7966;BME280;4028;43.272;26.932;2023-01-31T07:10:38;98654.09;;;0.95;100.00
7966;BME280;4028;43.272;26.932;2023-01-31T07:13:04;98657.91;;;1.04;100.00
7966;BME280;4028;43.272;26.932;2023-01-31T07:15:29;98665.06;;;1.00;100.00
7966;BME280;4028;43.272;26.932;2023-01-31T07:17:58;98649.63;;;0.97;100.00
7966;BME280;4028;43.272;26.932;2023-01-31T07:20:24;98682.56;;;1.13;100.00
7966;BME280;4028;43.272;26.932;2023-01-31T07:22:54;98678.53;;;1.07;100.00
7966;BME280;4028;43.272;26.932;2023-01-31T07:25:20;98670.09;;;1.03;100.00
7966;BME280;4028;43.272;26.932;2023-01-31T07:27:45;98679.47;;;0.92;100.00
7966;BME280;4028;43.272;26.932;2023-01-31T07:30:11;98676.81;;;0.93;100.00
7966;BME280;4028;43.272;26.932;2023-01-31T07:32:37;98670.63;;;1.09;100.00
7966;BME280;4028;43.272;26.932;2023-01-31T07:35:02;98671.66;;;1.06;100.00
7966;BME280;4028;43.272;26.932;2023-01-31T07:37:28;98677.34;;;1.13;100.00
7966;BME280;4028;43.272;26.932;2023-01-31T07:39:53;98679.63;;;1.17;100.00
7966;BME280;4028;43.272;26.932;2023-01-31T07:42:18;98678.91;;;1.15;100.00
7966;BME280;4028;43.272;26.932;2023-01-31T07:44:44;98675.47;;;1.15;100.00
7966;BME280;4028;43.272;26.932;2023-01-31T07:47:09;98686.91;;;1.12;100.00
7966;BME280;4028;43.272;26.932;2023-01-31T07:49:35;98686.72;;;1.15;100.00
7966;BME280;4028;43.272;26.932;2023-01-31T07:52:00;98679.09;;;1.12;100.00
7966;BME280;4028;43.272;26.932;2023-01-31T07:54:26;98678.44;;;1.23;100.00
7966;BME280;4028;43.272;26.932;2023-01-31T07:56:51;98676.28;;;1.29;100.00
7966;BME280;4028;43.272;26.932;2023-01-31T07:59:17;98674.88;;;1.24;100.00
7966;BME280;4028;43.272;26.932;2023-01-31T08:01:42;98684.72;;;1.33;100.00
7966;BME280;4028;43.272;26.932;2023-01-31T08:04:26;98676.16;;;1.31;100.00
7966;BME280;4028;43.272;26.932;2023-01-31T08:06:53;98695.53;;;1.27;100.00
7966;BME280;4028;43.272;26.932;2023-01-31T08:09:19;98702.22;;;1.31;100.00
7966;BME280;4028;43.272;26.932;2023-01-31T08:11:45;98696.53;;;1.39;100.00
7966;BME280;4028;43.272;26.932;2023-01-31T08:14:11;98699.38;;;1.48;100.00
7966;BME280;4028;43.272;26.932;2023-01-31T08:16:36;98664.25;;;1.27;100.00
7966;BME280;4028;43.272;26.932;2023-01-31T08:19:03;98705.69;;;1.59;100.00
7966;BME280;4028;43.272;26.932;2023-01-31T08:21:28;98710.81;;;1.60;100.00
7966;BME280;4028;43.272;26.932;2023-01-31T08:23:54;98706.16;;;1.65;100.00
7966;BME280;4028;43.272;26.932;2023-01-31T08:26:20;98709.38;;;1.69;100.00
7966;BME280;4028;43.272;26.932;2023-01-31T08:28:48;98699.34;;;1.63;100.00
7966;BME280;4028;43.272;26.932;2023-01-31T08:31:19;98709.19;;;1.72;100.00
7966;BME280;4028;43.272;26.932;2023-01-31T08:33:45;98716.81;;;1.75;100.00
7966;BME280;4028;43.272;26.932;2023-01-31T08:36:24;98719.75;;;1.83;100.00
7966;BME280;4028;43.272;26.932;2023-01-31T08:38:50;98719.63;;;1.72;100.00
7966;BME280;4028;43.272;26.932;2023-01-31T08:41:16;98697.72;;;1.74;100.00
7966;BME280;4028;43.272;26.932;2023-01-31T08:43:43;98724.53;;;1.76;100.00
7966;BME280;4028;43.272;26.932;2023-01-31T08:46:09;98723.66;;;1.90;100.00
7966;BME280;4028;43.272;26.932;2023-01-31T08:48:36;98716.91;;;2.00;100.00
7966;BME280;4028;43.272;26.932;2023-01-31T08:51:03;98720.38;;;2.14;100.00
7966;BME280;4028;43.272;26.932;2023-01-31T08:53:30;98716.28;;;2.09;100.00
7966;BME280;4028;43.272;26.932;2023-01-31T08:55:59;98725.19;;;2.20;100.00
7966;BME280;4028;43.272;26.932;2023-01-31T08:58:25;98717.88;;;2.25;100.00
7966;BME280;4028;43.272;26.932;2023-01-31T09:00:50;98728.19;;;2.14;100.00
7966;BME280;4028;43.272;26.932;2023-01-31T09:03:16;98737.56;;;2.03;100.00
7966;BME280;4028;43.272;26.932;2023-01-31T09:05:41;98739.69;;;2.11;100.00
7966;BME280;4028;43.272;26.932;2023-01-31T09:08:07;98742.38;;;2.09;100.00
7966;BME280;4028;43.272;26.932;2023-01-31T09:10:32;98744.38;;;2.19;100.00
7966;BME280;4028;43.272;26.932;2023-01-31T09:12:59;98735.50;;;2.08;100.00
7966;BME280;4028;43.272;26.932;2023-01-31T09:15:25;98747.31;;;2.14;100.00
7966;BME280;4028;43.272;26.932;2023-01-31T09:17:51;98750.38;;;2.21;100.00
7966;BME280;4028;43.272;26.932;2023-01-31T09:20:17;98738.03;;;2.23;100.00
7966;BME280;4028;43.272;26.932;2023-01-31T09:22:43;98735.25;;;2.26;100.00
7966;BME280;4028;43.272;26.932;2023-01-31T09:25:09;98725.06;;;2.08;100.00
7966;BME280;4028;43.272;26.932;2023-01-31T09:27:36;98734.56;;;2.09;100.00
7966;BME280;4028;43.272;26.932;2023-01-31T09:30:07;98738.31;;;2.05;100.00
7966;BME280;4028;43.272;26.932;2023-01-31T09:32:34;98715.03;;;2.02;100.00
7966;BME280;4028;43.272;26.932;2023-01-31T09:34:59;98735.78;;;2.31;100.00
7966;BME280;4028;43.272;26.932;2023-01-31T09:37:28;98733.28;;;2.42;100.00
7966;BME280;4028;43.272;26.932;2023-01-31T09:39:54;98733.06;;;2.45;100.00
7966;BME280;4028;43.272;26.932;2023-01-31T09:42:24;98727.63;;;2.48;100.00
7966;BME280;4028;43.272;26.932;2023-01-31T09:45:06;98735.78;;;2.44;100.00
7966;BME280;4028;43.272;26.932;2023-01-31T09:47:45;98729.72;;;2.43;100.00
7966;BME280;4028;43.272;26.932;2023-01-31T09:52:43;98718.44;;;2.43;100.00
7966;BME280;4028;43.272;26.932;2023-01-31T09:58:08;98716.75;;;2.29;100.00
7966;BME280;4028;43.272;26.932;2023-01-31T10:00:51;98723.53;;;2.31;100.00
7966;BME280;4028;43.272;26.932;2023-01-31T10:03:51;98723.31;;;2.22;100.00
7966;BME280;4028;43.272;26.932;2023-01-31T10:08:59;98725.22;;;2.32;100.00
7966;BME280;4028;43.272;26.932;2023-01-31T10:14:05;98724.25;;;2.21;100.00
7966;BME280;4028;43.272;26.932;2023-01-31T10:16:50;98728.72;;;2.19;100.00
7966;BME280;4028;43.272;26.932;2023-01-31T10:22:20;98722.50;;;2.34;100.00
7966;BME280;4028;43.272;26.932;2023-01-31T10:25:07;98714.66;;;2.34;100.00
7966;BME280;4028;43.272;26.932;2023-01-31T10:27:47;98721.16;;;2.41;100.00
7966;BME280;4028;43.272;26.932;2023-01-31T10:30:17;98728.16;;;2.53;100.00
7966;BME280;4028;43.272;26.932;2023-01-31T10:32:50;98725.34;;;2.69;100.00
7966;BME280;4028;43.272;26.932;2023-01-31T10:35:22;98728.38;;;2.76;100.00
7966;BME280;4028;43.272;26.932;2023-01-31T10:37:53;98715.81;;;2.81;100.00
7966;BME280;4028;43.272;26.932;2023-01-31T10:40:29;98709.66;;;2.95;100.00
7966;BME280;4028;43.272;26.932;2023-01-31T10:43:01;98709.16;;;2.77;100.00
7966;BME280;4028;43.272;26.932;2023-01-31T10:45:29;98711.22;;;2.97;100.00
7966;BME280;4028;43.272;26.932;2023-01-31T10:48:21;98705.00;;;3.24;100.00
7966;BME280;4028;43.272;26.932;2023-01-31T10:56:42;98710.44;;;3.21;100.00
7966;BME280;4028;43.272;26.932;2023-01-31T10:59:22;98703.72;;;3.29;100.00
7966;BME280;4028;43.272;26.932;2023-01-31T11:01:49;98709.88;;;3.41;100.00
7966;BME280;4028;43.272;26.932;2023-01-31T11:05:00;98704.31;;;3.46;100.00
7966;BME280;4028;43.272;26.932;2023-01-31T11:07:19;98703.75;;;3.77;100.00
7966;BME280;4028;43.272;26.932;2023-01-31T11:09:49;98697.97;;;3.85;100.00
7966;BME280;4028;43.272;26.932;2023-01-31T11:12:39;98697.25;;;4.18;100.00
7966;BME280;4028;43.272;26.932;2023-01-31T11:15:14;98681.16;;;4.47;100.00
7966;BME280;4028;43.272;26.932;2023-01-31T11:17:41;98680.72;;;4.86;100.00
7966;BME280;4028;43.272;26.932;2023-01-31T11:20:20;98674.63;;;5.08;100.00
7966;BME280;4028;43.272;26.932;2023-01-31T11:22:46;98683.09;;;5.12;100.00
7966;BME280;4028;43.272;26.932;2023-01-31T11:25:19;98680.34;;;5.02;100.00
7966;BME280;4028;43.272;26.932;2023-01-31T11:27:46;98683.31;;;5.20;100.00
7966;BME280;4028;43.272;26.932;2023-01-31T11:32:43;98688.16;;;5.36;100.00
7966;BME280;4028;43.272;26.932;2023-01-31T11:37:56;98700.13;;;4.95;100.00
7966;BME280;4028;43.272;26.932;2023-01-31T11:40:34;98692.75;;;4.20;100.00
7966;BME280;4028;43.272;26.932;2023-01-31T11:43:05;98687.53;;;4.20;100.00
7966;BME280;4028;43.272;26.932;2023-01-31T11:45:38;98697.38;;;4.16;100.00
7966;BME280;4028;43.272;26.932;2023-01-31T11:48:20;98680.38;;;4.22;100.00
7966;BME280;4028;43.272;26.932;2023-01-31T11:50:55;98686.81;;;4.29;100.00
7966;BME280;4028;43.272;26.932;2023-01-31T11:55:50;98685.13;;;4.17;100.00
7966;BME280;4028;43.272;26.932;2023-01-31T11:58:30;98677.44;;;4.03;100.00
7966;BME280;4028;43.272;26.932;2023-01-31T12:03:33;98671.53;;;4.12;100.00
7966;BME280;4028;43.272;26.932;2023-01-31T12:06:02;98673.94;;;4.15;100.00
7966;BME280;4028;43.272;26.932;2023-01-31T12:16:10;98678.53;;;4.58;100.00
7966;BME280;4028;43.272;26.932;2023-01-31T12:26:55;98701.16;;;4.12;100.00
7966;BME280;4028;43.272;26.932;2023-01-31T12:35:10;98714.06;;;3.68;100.00
7966;BME280;4028;43.272;26.932;2023-01-31T12:37:58;98713.66;;;3.61;100.00
7966;BME280;4028;43.272;26.932;2023-01-31T12:52:11;98708.00;;;3.67;100.00
7966;BME280;4028;43.272;26.932;2023-01-31T13:06:36;98739.13;;;3.59;100.00
7966;BME280;4028;43.272;26.932;2023-01-31T13:09:17;98741.28;;;3.65;100.00
7966;BME280;4028;43.272;26.932;2023-01-31T13:11:55;98745.28;;;3.58;100.00
7966;BME280;4028;43.272;26.932;2023-01-31T13:14:25;98755.84;;;3.56;100.00
7966;BME280;4028;43.272;26.932;2023-01-31T13:16:54;98743.53;;;3.46;100.00
7966;BME280;4028;43.272;26.932;2023-01-31T13:19:55;98759.88;;;3.49;100.00
7966;BME280;4028;43.272;26.932;2023-01-31T13:22:32;98759.22;;;3.58;100.00
7966;BME280;4028;43.272;26.932;2023-01-31T13:27:59;98761.47;;;3.39;100.00
7966;BME280;4028;43.272;26.932;2023-01-31T13:30:45;98767.13;;;3.33;100.00
7966;BME280;4028;43.272;26.932;2023-01-31T13:33:33;98766.19;;;3.21;100.00
7966;BME280;4028;43.272;26.932;2023-01-31T13:38:39;98772.66;;;3.28;100.00
7966;BME280;4028;43.272;26.932;2023-01-31T13:41:10;98773.94;;;3.23;100.00
7966;BME280;4028;43.272;26.932;2023-01-31T13:43:37;98778.84;;;3.15;100.00
7966;BME280;4028;43.272;26.932;2023-01-31T13:46:05;98762.97;;;3.05;100.00
7966;BME280;4028;43.272;26.932;2023-01-31T13:48:35;98771.72;;;3.17;100.00
7966;BME280;4028;43.272;26.932;2023-01-31T13:51:08;98781.25;;;3.18;100.00
7966;BME280;4028;43.272;26.932;2023-01-31T13:53:48;98780.41;;;3.17;100.00
7966;BME280;4028;43.272;26.932;2023-01-31T13:56:21;98783.97;;;3.16;100.00
7966;BME280;4028;43.272;26.932;2023-01-31T13:58:49;98766.28;;;3.07;100.00
7966;BME280;4028;43.272;26.932;2023-01-31T14:01:24;98778.34;;;3.09;100.00
7966;BME280;4028;43.272;26.932;2023-01-31T14:09:45;98778.84;;;3.15;100.00
7966;BME280;4028;43.272;26.932;2023-01-31T14:12:35;98787.72;;;3.12;100.00
7966;BME280;4028;43.272;26.932;2023-01-31T14:15:54;98787.84;;;3.10;100.00
7966;BME280;4028;43.272;26.932;2023-01-31T14:17:59;98776.03;;;3.05;100.00
7966;BME280;4028;43.272;26.932;2023-01-31T14:20:28;98778.44;;;3.08;100.00
7966;BME280;4028;43.272;26.932;2023-01-31T14:23:31;98784.28;;;2.99;100.00
7966;BME280;4028;43.272;26.932;2023-01-31T14:29:24;98791.91;;;3.02;100.00
7966;BME280;4028;43.272;26.932;2023-01-31T14:31:53;98794.13;;;3.08;100.00
7966;BME280;4028;43.272;26.932;2023-01-31T14:34:22;98801.66;;;3.00;100.00
7966;BME280;4028;43.272;26.932;2023-01-31T14:58:20;98840.00;;;2.74;100.00
7966;BME280;4028;43.272;26.932;2023-01-31T15:00:55;98848.47;;;2.77;100.00
7966;BME280;4028;43.272;26.932;2023-01-31T15:03:26;98839.47;;;2.69;100.00
7966;BME280;4028;43.272;26.932;2023-01-31T15:08:46;98853.16;;;2.72;100.00
7966;BME280;4028;43.272;26.932;2023-01-31T15:11:34;98857.63;;;2.57;100.00
7966;BME280;4028;43.272;26.932;2023-01-31T15:14:01;98856.84;;;2.55;100.00
7966;BME280;4028;43.272;26.932;2023-01-31T15:16:46;98857.63;;;2.57;100.00
7966;BME280;4028;43.272;26.932;2023-01-31T15:19:22;98847.75;;;2.48;100.00
7966;BME280;4028;43.272;26.932;2023-01-31T15:21:50;98862.94;;;2.56;100.00
7966;BME280;4028;43.272;26.932;2023-01-31T15:24:37;98867.13;;;2.58;100.00
7966;BME280;4028;43.272;26.932;2023-01-31T15:27:15;98867.53;;;2.52;100.00
7966;BME280;4028;43.272;26.932;2023-01-31T15:30:14;98872.47;;;2.57;100.00
7966;BME280;4028;43.272;26.932;2023-01-31T15:32:46;98872.34;;;2.58;100.00
7966;BME280;4028;43.272;26.932;2023-01-31T15:35:28;98878.28;;;2.60;100.00
7966;BME280;4028;43.272;26.932;2023-01-31T15:38:04;98873.81;;;2.63;100.00
7966;BME280;4028;43.272;26.932;2023-01-31T15:40:30;98870.31;;;2.49;100.00
7966;BME280;4028;43.272;26.932;2023-01-31T15:43:25;98881.00;;;2.46;100.00
7966;BME280;4028;43.272;26.932;2023-01-31T15:45:51;98890.59;;;2.46;100.00
7966;BME280;4028;43.272;26.932;2023-01-31T15:48:18;98893.53;;;2.54;100.00
7966;BME280;4028;43.272;26.932;2023-01-31T15:50:52;98894.28;;;2.56;100.00
7966;BME280;4028;43.272;26.932;2023-01-31T15:53:24;98905.75;;;2.53;100.00
7966;BME280;4028;43.272;26.932;2023-01-31T15:55:53;98901.25;;;2.55;100.00
7966;BME280;4028;43.272;26.932;2023-01-31T15:58:22;98907.72;;;2.50;100.00
7966;BME280;4028;43.272;26.932;2023-01-31T16:00:53;98913.88;;;2.49;100.00